Time;durP1;ratioP1;P1;durP2;ratioP2;P2;SDS_P1;SDS_P2;PMS_P1;PMS_P2;Temp;Humidity;BMP_temperature;BMP_pressure;BME280_temperature;BME280_humidity;BME280_pressure;Samples;Min_cycle;Max_cycle;Signal;HPM_P1;HPM_P2
2022/01/08 00:00:14;;;;;;;0.60;0.60;;;;;;;0.48;76.28;96430.53;29373;221;63004;-58
2022/01/08 00:00:46;;;;;;;0.60;0.60;;;;;;;0.48;76.73;96428.66;29373;217;63009;-58
2022/01/08 00:01:17;;;;;;;0.60;0.60;;;;;;;0.48;76.39;96431.34;29373;210;63004;-57
2022/01/08 00:01:48;;;;;;;0.60;0.60;;;;;;;0.49;76.66;96426.81;29373;219;63009;-59
2022/01/08 00:02:19;;;;;;;0.60;0.60;;;;;;;0.49;76.13;96427.63;29373;214;63004;-57
2022/01/08 00:02:51;;;;;;;0.60;0.60;;;;;;;0.51;76.53;96430.06;29373;204;63008;-58
2022/01/08 00:03:22;;;;;;;0.60;0.60;;;;;;;0.53;75.72;96417.28;29373;195;63005;-57
2022/01/08 00:03:57;;;;;;;0.60;0.60;;;;;;;0.54;75.70;96421.56;29371;208;64010;-58
2022/01/08 00:04:30;;;;;;;0.60;0.60;;;;;;;0.56;75.65;96417.59;29373;207;63005;-58
2022/01/08 00:05:01;;;;;;;0.60;0.60;;;;;;;0.58;76.04;96415.50;29373;211;63014;-56
2022/01/08 00:05:33;;;;;;;0.60;0.60;;;;;;;0.57;75.96;96413.88;29371;246;64005;-56
2022/01/08 00:06:05;;;;;;;0.60;0.60;;;;;;;0.60;75.60;96408.06;29373;204;63009;-58
2022/01/08 00:06:36;;;;;;;0.60;0.60;;;;;;;0.63;75.52;96412.94;29373;251;63005;-61
2022/01/08 00:07:07;;;;;;;0.60;0.60;;;;;;;0.62;75.76;96400.62;29373;206;63009;-57
2022/01/08 00:07:38;;;;;;;0.60;0.60;;;;;;;0.62;75.79;96405.97;29373;250;63004;-57
2022/01/08 00:08:10;;;;;;;0.68;0.68;;;;;;;0.61;75.96;96403.53;29373;220;63009;-57
2022/01/08 00:08:41;;;;;;;0.60;0.60;;;;;;;0.60;75.66;96402.72;29373;206;63004;-58
2022/01/08 00:09:12;;;;;;;0.60;0.60;;;;;;;0.61;75.68;96408.88;29373;257;63009;-57
2022/01/08 00:09:47;;;;;;;0.60;0.60;;;;;;;0.59;75.69;96406.44;29373;291;63004;-58
2022/01/08 00:10:18;;;;;;;0.60;0.60;;;;;;;0.58;75.89;96410.16;29373;209;63008;-58
2022/01/08 00:10:53;;;;;;;0.60;0.60;;;;;;;0.54;75.84;96411.69;29371;246;64005;-57
2022/01/08 00:11:27;;;;;;;0.60;0.60;;;;;;;0.51;76.19;96404.16;29373;218;63009;-58
2022/01/08 00:11:58;;;;;;;0.60;0.60;;;;;;;0.49;76.21;96408.12;29373;214;63005;-57
2022/01/08 00:12:33;;;;;;;0.60;0.60;;;;;;;0.47;76.47;96407.56;29373;219;63009;-58
2022/01/08 00:13:05;;;;;;;0.60;0.60;;;;;;;0.43;76.53;96404.56;29373;202;63005;-57
2022/01/08 00:13:39;;;;;;;0.60;0.60;;;;;;;0.41;77.04;96403.97;29373;253;63009;-58
2022/01/08 00:14:11;;;;;;;0.60;0.60;;;;;;;0.39;77.19;96402.59;29373;233;63004;-58
2022/01/08 00:14:42;;;;;;;0.60;0.60;;;;;;;0.39;77.28;96402.59;29373;225;63009;-59
2022/01/08 00:15:15;;;;;;;0.60;0.60;;;;;;;0.38;77.33;96404.47;29373;223;63004;-62
2022/01/08 00:15:47;;;;;;;0.52;0.52;;;;;;;0.38;77.34;96399.12;29373;247;63009;-59
2022/01/08 00:16:18;;;;;;;0.60;0.60;;;;;;;0.38;77.42;96400.97;29371;209;64004;-58
2022/01/08 00:16:51;;;;;;;0.60;0.60;;;;;;;0.37;77.71;96394.84;29373;234;63008;-56
2022/01/08 00:17:23;;;;;;;0.60;0.60;;;;;;;0.41;76.95;96393.31;29373;247;63004;-61
2022/01/08 00:17:54;;;;;;;0.60;0.60;;;;;;;0.43;76.78;96395.75;29373;197;63008;-58
2022/01/08 00:18:26;;;;;;;0.60;0.60;;;;;;;0.45;76.80;96393.63;29373;324;63005;-57
2022/01/08 00:18:57;;;;;;;0.60;0.60;;;;;;;0.45;76.95;96390.97;29373;221;63009;-59
2022/01/08 00:19:28;;;;;;;0.60;0.60;;;;;;;0.45;76.65;96394.44;29373;297;63005;-57
2022/01/08 00:19:59;;;;;;;0.60;0.60;;;;;;;0.46;77.18;96385.41;29373;203;63009;-57
2022/01/08 00:20:30;;;;;;;0.60;0.60;;;;;;;0.48;76.90;96382.47;29373;230;63005;-57
2022/01/08 00:21:01;;;;;;;0.60;0.60;;;;;;;0.49;76.21;96384.91;29373;226;63009;-57
2022/01/08 00:21:33;;;;;;;0.60;0.60;;;;;;;0.52;75.89;96391.62;29371;234;64004;-58
2022/01/08 00:22:04;;;;;;;0.60;0.60;;;;;;;0.58;75.24;96383.47;29373;196;63009;-57
2022/01/08 00:22:35;;;;;;;0.60;0.60;;;;;;;0.57;75.37;96373.84;29373;339;63004;-58
2022/01/08 00:23:08;;;;;;;0.60;0.60;;;;;;;0.58;75.56;96378.13;29373;296;63009;-58
2022/01/08 00:23:39;;;;;;;0.60;0.60;;;;;;;0.57;75.45;96368.50;29373;196;63004;-62
2022/01/08 00:24:11;;;;;;;0.60;0.60;;;;;;;0.58;75.57;96372.78;29373;216;63008;-57
2022/01/08 00:24:42;;;;;;;0.60;0.60;;;;;;;0.59;75.43;96371.75;29371;209;64005;-57
2022/01/08 00:25:13;;;;;;;0.60;0.60;;;;;;;0.61;75.48;96366.97;29373;219;63009;-58
2022/01/08 00:25:44;;;;;;;0.60;0.60;;;;;;;0.62;75.19;96362.44;29373;223;63005;-56
2022/01/08 00:26:15;;;;;;;0.60;0.60;;;;;;;0.60;75.12;96365.34;29371;231;64009;-58
2022/01/08 00:26:46;;;;;;;0.60;0.60;;;;;;;0.65;75.19;96368.09;29373;207;63005;-61
2022/01/08 00:27:18;;;;;;;0.60;0.60;;;;;;;0.63;75.24;96359.53;29373;263;63009;-57
2022/01/08 00:27:50;;;;;;;0.60;0.60;;;;;;;0.62;75.06;96357.09;29373;207;63005;-57
2022/01/08 00:28:23;;;;;;;0.60;0.60;;;;;;;0.61;74.95;96358.97;29371;227;64009;-57
2022/01/08 00:28:54;;;;;;;0.60;0.60;;;;;;;0.59;75.48;96363.72;29373;230;63004;-57
2022/01/08 00:29:26;;;;;;;0.60;0.60;;;;;;;0.56;75.42;96356.22;29373;208;63009;-56
2022/01/08 00:29:57;;;;;;;0.60;0.60;;;;;;;0.54;75.48;96358.31;29373;228;63004;-56
2022/01/08 00:30:30;;;;;;;0.60;0.60;;;;;;;0.52;76.05;96357.75;29373;218;63009;-57
2022/01/08 00:31:04;;;;;;;0.60;0.60;;;;;;;0.51;75.87;96356.13;29373;310;63004;-57
2022/01/08 00:31:35;;;;;;;0.60;0.60;;;;;;;0.49;76.09;96352.88;29373;205;63019;-58
2022/01/08 00:32:08;;;;;;;0.60;0.60;;;;;;;0.48;75.95;96350.44;29373;198;63004;-58
2022/01/08 00:32:42;;;;;;;0.50;0.50;;;;;;;0.42;76.69;96352.22;29371;266;64009;-60
2022/01/08 00:33:14;;;;;;;0.60;0.60;;;;;;;0.39;76.92;96357.22;29373;242;63005;-58
2022/01/08 00:33:47;;;;;;;0.60;0.60;;;;;;;0.37;77.05;96348.66;29373;204;63009;-57
2022/01/08 00:34:18;;;;;;;0.60;0.60;;;;;;;0.36;76.83;96347.84;29373;210;63005;-57
2022/01/08 00:34:50;;;;;;;0.60;0.60;;;;;;;0.36;76.98;96342.50;29373;202;63009;-58
2022/01/08 00:35:22;;;;;;;0.60;0.60;;;;;;;0.37;77.39;96349.47;29373;245;63005;-58
2022/01/08 00:35:53;;;;;;;0.50;0.50;;;;;;;0.39;76.77;96347.38;29371;259;64009;-57
2022/01/08 00:36:24;;;;;;;0.60;0.60;;;;;;;0.40;76.82;96353.50;29373;264;63005;-57
2022/01/08 00:36:55;;;;;;;0.60;0.60;;;;;;;0.39;77.03;96347.38;29373;215;63009;-62
2022/01/08 00:37:27;;;;;;;0.60;0.60;;;;;;;0.41;76.84;96350.59;29373;200;63004;-58
2022/01/08 00:38:00;;;;;;;0.60;0.60;;;;;;;0.40;77.00;96348.97;29373;224;63009;-61
2022/01/08 00:38:32;;;;;;;0.60;0.60;;;;;;;0.40;76.82;96350.84;29373;310;63004;-58
2022/01/08 00:39:04;;;;;;;0.60;0.60;;;;;;;0.40;76.67;96346.31;29373;244;63008;-57
2022/01/08 00:39:37;;;;;;;0.60;0.60;;;;;;;0.49;76.10;96352.06;29373;251;63004;-58
2022/01/08 00:40:10;;;;;;;0.60;0.60;;;;;;;0.50;75.80;96351.84;29373;202;63009;-57
2022/01/08 00:40:44;;;;;;;0.60;0.60;;;;;;;0.54;75.74;96355.63;29372;253;63005;-56
2022/01/08 00:41:16;;;;;;;0.60;0.60;;;;;;;0.53;75.95;96343.34;29371;211;64009;-57
2022/01/08 00:41:47;;;;;;;0.60;0.60;;;;;;;0.49;75.91;96342.19;29373;204;63005;-59
2022/01/08 00:42:18;;;;;;;0.70;0.70;;;;;;;0.45;76.36;96346.41;29373;259;63009;-57
2022/01/08 00:42:49;;;;;;;0.60;0.60;;;;;;;0.44;76.37;96346.66;29373;233;63005;-58
2022/01/08 00:43:21;;;;;;;0.60;0.60;;;;;;;0.42;76.65;96349.56;29373;216;63009;-59
2022/01/08 00:43:52;;;;;;;0.60;0.60;;;;;;;0.42;76.88;96352.22;29371;303;64005;-58
2022/01/08 00:44:23;;;;;;;0.60;0.60;;;;;;;0.42;77.05;96346.88;29373;213;63009;-58
2022/01/08 00:44:55;;;;;;;0.60;0.60;;;;;;;0.42;77.12;96352.22;29373;222;63004;-58
2022/01/08 00:45:29;;;;;;;0.65;0.65;;;;;;;0.41;76.84;96345.25;29372;213;64009;-58
2022/01/08 00:46:00;;;;;;;0.80;0.80;;;;;;;0.36;77.25;96342.50;29373;278;63004;-57
2022/01/08 00:46:31;;;;;;;0.60;0.60;;;;;;;0.34;77.31;96347.31;29373;215;63008;-58
2022/01/08 00:47:03;;;;;;;0.70;0.70;;;;;;;0.35;77.43;96340.88;29371;260;64004;-58
2022/01/08 00:47:35;;;;;;;0.60;0.60;;;;;;;0.35;77.75;96338.22;29373;312;63009;-58
2022/01/08 00:48:06;;;;;;;0.60;0.60;;;;;;;0.35;77.71;96340.88;29373;336;63017;-60
2022/01/08 00:48:39;;;;;;;0.88;0.88;;;;;;;0.35;77.62;96338.22;29373;247;63009;-58
2022/01/08 00:49:10;;;;;;;0.60;0.60;;;;;;;0.36;77.74;96342.50;29373;265;63005;-58
2022/01/08 00:49:42;;;;;;;0.60;0.60;;;;;;;0.35;77.47;96340.88;29373;323;63009;-58
2022/01/08 00:50:14;;;;;;;0.60;0.60;;;;;;;0.36;77.56;96334.50;29373;229;63005;-61
2022/01/08 00:50:45;;;;;;;0.60;0.60;;;;;;;0.39;77.63;96336.69;29373;205;63009;-58
2022/01/08 00:51:17;;;;;;;0.70;0.70;;;;;;;0.40;77.34;96335.63;29373;380;63005;-62
2022/01/08 00:51:49;;;;;;;0.60;0.60;;;;;;;0.39;77.31;96328.69;29371;279;64009;-58
2022/01/08 00:52:21;;;;;;;0.60;0.60;;;;;;;0.43;76.86;96327.16;29373;197;63004;-62
2022/01/08 00:52:53;;;;;;;0.60;0.60;;;;;;;0.40;77.39;96327.63;29373;327;63009;-57
2022/01/08 00:53:24;;;;;;;0.60;0.60;;;;;;;0.40;77.20;96332.16;29373;217;63004;-57
2022/01/08 00:53:55;;;;;;;0.60;0.60;;;;;;;0.41;77.42;96320.44;29373;278;63009;-58
2022/01/08 00:54:27;;;;;;;0.60;0.60;;;;;;;0.41;77.47;96323.91;29373;236;63004;-58
2022/01/08 00:54:59;;;;;;;0.60;0.60;;;;;;;0.40;77.60;96326.81;29373;359;63009;-59
2022/01/08 00:55:30;;;;;;;0.60;0.60;;;;;;;0.37;77.54;96322.78;29373;325;63005;-57
2022/01/08 00:56:01;;;;;;;0.60;0.60;;;;;;;0.38;77.85;96321.72;29373;313;63009;-58
2022/01/08 00:56:33;;;;;;;0.60;0.60;;;;;;;0.37;77.57;96321.97;29373;200;63005;-58
2022/01/08 00:57:05;;;;;;;0.60;0.60;;;;;;;0.35;77.67;96319.53;29371;284;64009;-58
2022/01/08 00:57:37;;;;;;;0.60;0.60;;;;;;;0.35;77.82;96313.44;29373;328;63005;-57
2022/01/08 00:58:08;;;;;;;0.60;0.60;;;;;;;0.36;78.12;96315.00;29373;311;63009;-57
2022/01/08 00:58:39;;;;;;;0.60;0.60;;;;;;;0.36;77.86;96310.47;29373;288;63008;-59
2022/01/08 00:59:13;;;;;;;0.70;0.70;;;;;;;0.41;77.43;96318.56;29373;270;63016;-60
2022/01/08 00:59:46;;;;;;;0.60;0.60;;;;;;;0.42;77.27;96309.53;29373;256;63004;-62
2022/01/08 01:00:18;;;;;;;0.60;0.60;;;;;;;0.42;77.35;96309.53;29373;213;63009;-58
2022/01/08 01:00:49;;;;;;;0.60;0.60;;;;;;;0.39;77.60;96302.00;29372;301;64004;-57
2022/01/08 01:01:20;;;;;;;0.60;0.60;;;;;;;0.36;77.99;96304.34;29373;215;63009;-58
2022/01/08 01:01:52;;;;;;;0.60;0.60;;;;;;;0.33;77.62;96303.81;29373;218;63004;-58
2022/01/08 01:02:24;;;;;;;0.60;0.60;;;;;;;0.33;77.72;96300.31;29371;259;64008;-58
2022/01/08 01:02:57;;;;;;;0.62;0.62;;;;;;;0.32;77.99;96309.38;29373;206;63018;-57
2022/01/08 01:03:28;;;;;;;0.60;0.60;;;;;;;0.31;78.19;96299.75;29373;260;63009;-59
2022/01/08 01:04:01;;;;;;;0.60;0.60;;;;;;;0.31;78.07;96302.41;29373;208;63005;-63
2022/01/08 01:04:33;;;;;;;0.60;0.60;;;;;;;0.32;78.37;96304.03;29373;216;63009;-57
2022/01/08 01:05:06;;;;;;;0.60;0.60;;;;;;;0.29;78.36;96302.66;29373;273;63005;-63
2022/01/08 01:05:38;;;;;;;0.60;0.60;;;;;;;0.32;78.38;96298.72;29373;251;63009;-60
2022/01/08 01:06:12;;;;;;;0.60;0.60;;;;;;;0.34;78.40;96296.59;29373;263;63005;-59
2022/01/08 01:06:44;;;;;;;0.60;0.60;;;;;;;0.37;78.39;96298.75;29373;265;63015;-62
2022/01/08 01:07:15;;;;;;;0.60;0.60;;;;;;;0.36;78.07;96299.00;29373;218;63012;-57
2022/01/08 01:07:47;;;;;;;0.60;0.60;;;;;;;0.37;78.04;96289.94;29371;255;64009;-60
2022/01/08 01:08:18;;;;;;;0.60;0.60;;;;;;;0.36;77.90;96283.81;29373;313;63004;-62
2022/01/08 01:08:50;;;;;;;0.60;0.60;;;;;;;0.36;78.08;96297.13;29373;241;63027;-60
2022/01/08 01:09:25;;;;;;;0.60;0.60;;;;;;;0.37;78.05;96293.44;29373;225;63004;-57
2022/01/08 01:09:56;;;;;;;0.60;0.60;;;;;;;0.37;78.37;96290.75;29373;235;63026;-57
2022/01/08 01:10:27;;;;;;;0.70;0.70;;;;;;;0.38;78.10;96291.56;29373;224;63005;-58
2022/01/08 01:10:59;;;;;;;0.60;0.60;;;;;;;0.39;78.48;96299.31;29373;224;63009;-60
2022/01/08 01:11:35;;;;;;;0.60;0.60;;;;;;;0.38;78.12;96300.38;29373;218;63005;-61
2022/01/08 01:12:07;;;;;;;0.60;0.60;;;;;;;0.37;78.40;96298.75;29371;197;64009;-63
2022/01/08 01:12:39;;;;;;;0.60;0.60;;;;;;;0.40;78.31;96298.28;29373;197;63005;-59
2022/01/08 01:13:13;;;;;;;0.60;0.60;;;;;;;0.41;78.31;96291.88;29373;224;63009;-59
2022/01/08 01:13:45;;;;;;;0.60;0.60;;;;;;;0.41;78.14;96291.88;29371;259;64005;-63
2022/01/08 01:14:16;;;;;;;0.60;0.60;;;;;;;0.42;78.13;96293.50;29371;224;64009;-61
2022/01/08 01:14:48;;;;;;;0.60;0.60;;;;;;;0.42;78.30;96290.84;29373;202;63004;-59
2022/01/08 01:15:19;;;;;;;0.70;0.70;;;;;;;0.42;78.12;96295.38;29373;202;63009;-58
2022/01/08 01:15:51;;;;;;;0.70;0.70;;;;;;;0.43;78.40;96288.97;29373;278;63016;-58
2022/01/08 01:16:23;;;;;;;0.60;0.60;;;;;;;0.42;78.44;96293.50;29373;215;63009;-56
2022/01/08 01:16:54;;;;;;;0.60;0.60;;;;;;;0.44;78.68;96291.41;29373;222;63004;-57
2022/01/08 01:17:26;;;;;;;0.60;0.60;;;;;;;0.43;78.55;96292.47;29373;226;63008;-57
2022/01/08 01:17:57;;;;;;;0.60;0.60;;;;;;;0.43;78.31;96294.31;29373;223;63005;-58
2022/01/08 01:18:29;;;;;;;0.60;0.60;;;;;;;0.43;78.65;96284.44;29373;250;63009;-58
2022/01/08 01:19:02;;;;;;;0.70;0.70;;;;;;;0.46;78.20;96283.97;29373;315;63005;-58
2022/01/08 01:19:35;;;;;;;0.60;0.60;;;;;;;0.48;78.32;96283.72;29371;324;64009;-57
2022/01/08 01:20:09;;;;;;;0.60;0.60;;;;;;;0.46;78.39;96283.97;29373;209;63016;-58
2022/01/08 01:20:42;;;;;;;0.60;0.60;;;;;;;0.46;78.77;96278.62;29373;226;63009;-58
2022/01/08 01:21:14;;;;;;;0.60;0.60;;;;;;;0.45;78.62;96266.34;29373;323;63004;-61
2022/01/08 01:21:45;;;;;;;0.70;0.70;;;;;;;0.47;78.61;96279.44;29373;262;63009;-64
2022/01/08 01:22:20;;;;;;;0.60;0.60;;;;;;;0.44;78.05;96278.06;29373;298;63004;-62
2022/01/08 01:23:55;;;;;;;0.68;0.68;;;;;;;0.47;77.81;96268.75;29395;211;63004;-59
2022/01/08 01:24:28;;;;;;;0.70;0.70;;;;;;;0.46;78.20;96262.62;29395;219;63008;-57
2022/01/08 01:25:04;;;;;;;0.60;0.60;;;;;;;0.45;77.92;96268.19;29371;225;64004;-58
2022/01/08 01:25:43;;;;;;;0.60;0.60;;;;;;;0.47;77.68;96264.22;29373;197;63009;-64
2022/01/08 01:26:22;;;;;;;0.60;0.60;;;;;;;0.48;77.80;96262.38;29373;211;63005;-62
2022/01/08 01:28:08;;;;;;;0.60;0.60;;;;;;;0.53;77.35;96260.59;29373;197;63005;-58
2022/01/08 01:29:11;;;;;;;0.70;0.70;;;;;;;0.57;77.32;96259.06;29373;197;63009;-60
2022/01/08 01:30:07;;;;;;;0.60;0.60;;;;;;;0.54;77.26;96251.53;29371;219;64004;-58
2022/01/08 01:42:29;;;;;;;0.60;0.60;;;;;;;0.45;78.24;96223.62;29373;252;63005;-60
2022/01/08 01:47:03;;;;;;;0.60;0.60;;;;;;;0.47;78.10;96218.84;29373;253;63005;-60
2022/01/08 01:47:36;;;;;;;0.60;0.60;;;;;;;0.48;77.75;96212.47;29371;273;64009;-57
2022/01/08 01:48:07;;;;;;;0.60;0.60;;;;;;;0.49;77.75;96216.75;29373;237;63005;-57
2022/01/08 01:48:39;;;;;;;0.60;0.60;;;;;;;0.50;78.17;96215.69;29373;242;63015;-63
2022/01/08 01:49:10;;;;;;;0.60;0.60;;;;;;;0.48;77.84;96217.81;29373;207;63005;-61
2022/01/08 01:49:44;;;;;;;0.60;0.60;;;;;;;0.47;78.02;96213.50;29373;225;63009;-60
2022/01/08 01:50:16;;;;;;;0.60;0.60;;;;;;;0.46;78.37;96209.22;29373;257;63005;-58
2022/01/08 01:50:47;;;;;;;0.60;0.60;;;;;;;0.45;78.47;96201.47;29373;249;63009;-57
2022/01/08 01:51:21;;;;;;;0.60;0.60;;;;;;;0.44;78.68;96199.84;29373;250;63004;-57
2022/01/08 01:51:55;;;;;;;0.60;0.60;;;;;;;0.44;78.36;96206.00;29371;202;64009;-56
2022/01/08 01:52:26;;;;;;;0.60;0.60;;;;;;;0.44;78.21;96189.97;29373;224;63004;-57
2022/01/08 01:52:58;;;;;;;0.60;0.60;;;;;;;0.46;78.53;96193.22;29373;198;63009;-57
2022/01/08 01:53:30;;;;;;;0.60;0.60;;;;;;;0.48;78.29;96200.97;29373;237;63011;-57
2022/01/08 01:54:02;;;;;;;0.60;0.60;;;;;;;0.48;78.62;96190.31;29373;218;63008;-57
2022/01/08 01:54:36;;;;;;;0.60;0.60;;;;;;;0.46;78.77;96190.53;29373;223;63005;-59
2022/01/08 01:55:08;;;;;;;0.60;0.60;;;;;;;0.45;78.78;96194.28;29371;239;64009;-59
2022/01/08 01:55:45;;;;;;;0.60;0.60;;;;;;;0.45;78.80;96194.28;29373;204;63005;-61
2022/01/08 01:56:19;;;;;;;0.60;0.60;;;;;;;0.44;78.41;96195.31;29371;226;64009;-57
2022/01/08 01:56:54;;;;;;;0.60;0.60;;;;;;;0.43;78.58;96187.56;29373;214;63005;-61
2022/01/08 01:57:27;;;;;;;0.60;0.60;;;;;;;0.41;78.85;96179.78;29373;233;63009;-58
2022/01/08 01:58:00;;;;;;;0.60;0.60;;;;;;;0.38;78.60;96180.28;29373;208;63005;-60
2022/01/08 01:58:31;;;;;;;0.60;0.60;;;;;;;0.38;79.03;96180.28;29373;223;63009;-57
2022/01/08 01:59:06;;;;;;;0.60;0.60;;;;;;;0.38;78.91;96180.28;29373;206;63004;-64
2022/01/08 01:59:44;;;;;;;0.68;0.68;;;;;;;0.39;79.06;96171.22;29373;215;63009;-66
2022/01/08 02:00:16;;;;;;;0.70;0.70;;;;;;;0.42;78.73;96168.06;29371;206;64004;-57
2022/01/08 02:00:50;;;;;;;0.60;0.60;;;;;;;0.44;78.56;96157.97;29373;247;63009;-60
2022/01/08 02:01:22;;;;;;;0.60;0.60;;;;;;;0.44;78.37;96157.97;29373;212;63004;-57
2022/01/08 02:01:54;;;;;;;0.62;0.62;;;;;;;0.44;78.30;96155.28;29373;233;63016;-59
2022/01/08 02:02:25;;;;;;;0.60;0.60;;;;;;;0.43;78.26;96156.34;29373;198;63005;-58
2022/01/08 02:02:56;;;;;;;0.60;0.60;;;;;;;0.45;78.68;96159.56;29373;212;63009;-58
2022/01/08 02:03:27;;;;;;;0.60;0.60;;;;;;;0.46;78.75;96158.53;29373;223;63005;-58
2022/01/08 02:04:01;;;;;;;0.60;0.60;;;;;;;0.48;78.54;96159.09;29373;199;63009;-63
2022/01/08 02:04:32;;;;;;;0.60;0.60;;;;;;;0.54;77.75;96158.09;29371;233;64005;-58
2022/01/08 02:05:05;;;;;;;0.60;0.60;;;;;;;0.56;77.76;96150.66;29373;204;63009;-58
2022/01/08 02:05:36;;;;;;;0.60;0.60;;;;;;;0.57;77.85;96156.78;29373;221;63005;-64
2022/01/08 02:06:10;;;;;;;0.60;0.60;;;;;;;0.63;77.74;96147.81;29373;213;63009;-61
2022/01/08 02:06:41;;;;;;;0.60;0.60;;;;;;;0.66;77.19;96149.97;29373;220;63011;-60
2022/01/08 02:07:12;;;;;;;0.60;0.60;;;;;;;0.69;77.33;96148.69;29373;218;63009;-68
2022/01/08 02:07:47;;;;;;;0.60;0.60;;;;;;;0.66;77.14;96144.66;29373;222;63004;-64
2022/01/08 02:08:19;;;;;;;0.60;0.60;;;;;;;0.68;77.51;96141.72;29373;203;63009;-67
2022/01/08 02:08:52;;;;;;;0.60;0.60;;;;;;;0.68;77.04;96141.72;29371;221;64004;-62
2022/01/08 02:09:23;;;;;;;0.60;0.60;;;;;;;0.65;77.26;96149.19;29373;282;63008;-60
2022/01/08 02:09:56;;;;;;;0.60;0.60;;;;;;;0.68;77.39;96144.41;29373;233;63010;-60
2022/01/08 02:10:27;;;;;;;0.60;0.60;;;;;;;0.65;77.29;96141.16;29373;281;63009;-65
2022/01/08 02:10:59;;;;;;;0.60;0.60;;;;;;;0.64;77.59;96146.75;29373;276;63005;-63
2022/01/08 02:11:30;;;;;;;0.60;0.60;;;;;;;0.66;77.75;96153.47;29373;199;63009;-65
2022/01/08 02:12:07;;;;;;;0.60;0.60;;;;;;;0.66;77.49;96145.44;29373;258;63017;-59
2022/01/08 02:12:40;;;;;;;0.60;0.60;;;;;;;0.69;77.25;96138.00;29371;221;64009;-61
2022/01/08 02:13:24;;;;;;;0.60;0.60;;;;;;;0.71;77.14;96146.53;29373;223;63005;-63
2022/01/08 02:14:04;;;;;;;0.60;0.60;;;;;;;0.71;77.15;96143.87;29373;248;63009;-61
2022/01/08 02:14:37;;;;;;;0.60;0.60;;;;;;;0.69;77.29;96144.16;29395;331;63004;-65
2022/01/08 02:15:09;;;;;;;0.60;0.60;;;;;;;0.69;77.73;96146.00;29395;246;63009;-61
2022/01/08 02:15:43;;;;;;;0.60;0.60;;;;;;;0.72;77.39;96146.28;29371;204;64004;-60
2022/01/08 02:16:17;;;;;;;0.60;0.60;;;;;;;0.71;77.52;96135.88;29373;225;63009;-57
2022/01/08 02:16:50;;;;;;;0.60;0.60;;;;;;;0.66;77.75;96137.44;29373;276;63004;-60
2022/01/08 02:17:21;;;;;;;0.60;0.60;;;;;;;0.68;77.63;96139.06;29373;262;63009;-57
2022/01/08 02:17:52;;;;;;;0.68;0.68;;;;;;;0.64;77.79;96136.87;29372;210;63005;-62
2022/01/08 02:18:28;;;;;;;0.60;0.60;;;;;;;0.64;77.64;96136.87;29373;212;63019;-61
2022/01/08 02:18:59;;;;;;;0.60;0.60;;;;;;;0.63;77.69;96129.13;29373;249;63015;-62
2022/01/08 02:19:31;;;;;;;0.60;0.60;;;;;;;0.65;77.75;96133.16;29373;267;63009;-58
2022/01/08 02:20:03;;;;;;;0.60;0.60;;;;;;;0.66;77.81;96133.97;29373;282;63005;-62
2022/01/08 02:20:34;;;;;;;0.60;0.60;;;;;;;0.68;78.12;96139.06;29371;213;64009;-61
2022/01/08 02:21:05;;;;;;;1.25;1.25;;;;;;;0.73;77.97;96134.56;29373;296;63005;-59
2022/01/08 02:21:36;;;;;;;0.60;0.60;;;;;;;0.82;77.77;96138.41;29373;203;63009;-61
2022/01/08 02:22:10;;;;;;;0.60;0.60;;;;;;;0.84;77.69;96130.16;29373;310;63004;-60
2022/01/08 02:22:45;;;;;;;0.60;0.60;;;;;;;0.84;77.93;96136.31;29373;237;63009;-57
2022/01/08 02:23:16;;;;;;;0.60;0.60;;;;;;;0.87;77.49;96140.34;29373;238;63004;-63
2022/01/08 02:23:48;;;;;;;0.60;0.60;;;;;;;0.91;77.70;96130.78;29373;239;63009;-58
2022/01/08 02:24:21;;;;;;;0.60;0.60;;;;;;;0.93;77.42;96134.81;29373;202;63004;-62
2022/01/08 02:24:52;;;;;;;0.60;0.60;;;;;;;0.92;77.60;96135.88;29373;221;63009;-61
2022/01/08 02:25:23;;;;;;;0.60;0.60;;;;;;;0.89;77.40;96132.88;29371;323;64005;-63
2022/01/08 02:26:05;;;;;;;0.60;0.60;;;;;;;0.88;78.05;96131.28;29373;262;63009;-57
2022/01/08 02:26:36;;;;;;;0.60;0.60;;;;;;;0.90;78.23;96113.94;29373;264;63005;-73
2022/01/08 02:27:08;;;;;;;0.60;0.60;;;;;;;0.92;77.95;96119.03;29373;260;63009;-64
2022/01/08 02:27:39;;;;;;;0.60;0.60;;;;;;;0.90;78.58;96124.62;29373;286;63005;-66
2022/01/08 02:28:10;;;;;;;0.60;0.60;;;;;;;0.88;78.44;96108.03;29371;306;64009;-68
2022/01/08 02:28:42;;;;;;;0.60;0.60;;;;;;;0.94;78.19;96114.25;29373;215;63004;-61
2022/01/08 02:29:15;;;;;;;0.60;0.60;;;;;;;0.96;78.15;96112.13;29373;348;63009;-57
2022/01/08 02:29:49;;;;;;;0.60;0.60;;;;;;;0.98;77.83;96110.81;29373;308;63004;-66
2022/01/08 02:30:21;;;;;;;0.60;0.60;;;;;;;0.98;78.12;96120.72;29373;336;63009;-60
2022/01/08 02:30:52;;;;;;;0.60;0.60;;;;;;;0.98;77.87;96105.50;29373;206;63004;-62
2022/01/08 02:31:24;;;;;;;0.60;0.60;;;;;;;1.01;77.82;96112.19;29373;225;63008;-68
2022/01/08 02:32:08;;;;;;;0.60;0.60;;;;;;;1.03;77.71;96107.41;29373;311;63004;-61
2022/01/08 02:32:41;;;;;;;0.60;0.60;;;;;;;1.04;77.95;96103.66;29373;203;63009;-61
2022/01/08 02:33:12;;;;;;;2.05;1.15;;;;;;;1.11;77.81;96104.25;29371;197;64005;-60
2022/01/08 02:33:44;;;;;;;0.60;0.60;;;;;;;1.12;77.72;96105.06;29373;198;63009;-58
2022/01/08 02:34:16;;;;;;;0.80;0.80;;;;;;;1.11;77.41;96096.25;29371;285;64005;-62
2022/01/08 02:34:49;;;;;;;0.60;0.60;;;;;;;1.10;77.68;96107.19;29373;224;63009;-64
2022/01/08 02:35:24;;;;;;;0.60;0.60;;;;;;;1.08;78.10;96104.75;29373;219;63005;-58
2022/01/08 02:35:56;;;;;;;0.60;0.60;;;;;;;1.05;78.06;96105.25;29371;226;64009;-70
2022/01/08 02:36:28;;;;;;;0.60;0.60;;;;;;;1.06;78.12;96106.87;29373;238;63004;-61
2022/01/08 02:37:00;;;;;;;0.60;0.60;;;;;;;1.17;77.84;96097.91;29373;264;63009;-63
2022/01/08 02:37:33;;;;;;;0.60;0.60;;;;;;;1.20;77.66;96101.94;29373;206;63004;-57
2022/01/08 02:38:06;;;;;;;0.60;0.60;;;;;;;1.19;77.51;96101.13;29371;203;64008;-60
2022/01/08 02:38:40;;;;;;;0.60;0.60;;;;;;;1.16;77.70;96098.16;29373;224;63004;-61
2022/01/08 02:39:12;;;;;;;0.60;0.60;;;;;;;1.15;77.91;96109.91;29373;344;63009;-61
2022/01/08 02:39:48;;;;;;;0.60;0.60;;;;;;;1.16;77.65;96106.19;29373;287;63005;-61
2022/01/08 02:40:22;;;;;;;0.60;0.60;;;;;;;1.16;77.94;96101.66;29373;252;63009;-58
2022/01/08 02:41:00;;;;;;;0.60;0.60;;;;;;;1.17;77.56;96097.09;29373;197;63005;-61
2022/01/08 02:41:31;;;;;;;0.60;0.60;;;;;;;1.16;77.90;96095.50;29373;205;63009;-61
2022/01/08 02:42:03;;;;;;;0.60;0.60;;;;;;;1.14;77.67;96095.75;29373;202;63005;-60
2022/01/08 02:42:40;;;;;;;0.60;0.60;;;;;;;1.16;78.09;96095.50;29373;293;63009;-58
2022/01/08 02:43:12;;;;;;;0.60;0.60;;;;;;;1.22;77.88;96091.81;29371;216;64004;-57
2022/01/08 02:43:46;;;;;;;0.60;0.60;;;;;;;1.26;77.94;96098.28;29373;224;63009;-58
2022/01/08 02:44:17;;;;;;;0.60;0.60;;;;;;;1.25;77.82;96085.97;29371;204;64004;-57
2022/01/08 02:44:49;;;;;;;0.60;0.60;;;;;;;1.24;77.83;96087.84;29373;199;63009;-61
2022/01/08 02:45:22;;;;;;;0.60;0.60;;;;;;;1.26;77.66;96091.06;29371;259;64004;-57
2022/01/08 02:45:56;;;;;;;0.60;0.60;;;;;;;1.24;77.96;96093.19;29373;202;63008;-57
2022/01/08 02:46:29;;;;;;;0.82;0.82;;;;;;;1.26;77.61;96090.25;29373;220;63004;-64
2022/01/08 02:47:02;;;;;;;0.60;0.60;;;;;;;1.23;77.67;96082.75;29373;206;63009;-68
2022/01/08 02:47:33;;;;;;;0.60;0.60;;;;;;;1.21;77.93;96088.34;29371;237;64005;-57
2022/01/08 02:48:04;;;;;;;0.60;0.60;;;;;;;1.21;77.54;96077.66;29373;219;63009;-67
2022/01/08 02:48:36;;;;;;;0.60;0.60;;;;;;;1.20;77.83;96086.72;29373;297;63005;-56
2022/01/08 02:49:08;;;;;;;0.60;0.60;;;;;;;1.23;77.67;96086.22;29373;216;63021;-57
2022/01/08 02:49:39;;;;;;;0.60;0.60;;;;;;;1.24;77.35;96082.50;29373;229;63005;-57
2022/01/08 02:50:11;;;;;;;0.90;0.90;;;;;;;1.25;77.76;96081.44;29373;214;63009;-60
2022/01/08 02:50:43;;;;;;;0.60;0.60;;;;;;;1.26;77.37;96074.22;29373;203;63004;-57
2022/01/08 02:51:14;;;;;;;0.60;0.60;;;;;;;1.25;77.55;96073.41;29373;363;63009;-56
2022/01/08 02:51:45;;;;;;;0.60;0.60;;;;;;;1.23;77.73;96082.75;29373;212;63004;-61
2022/01/08 02:52:18;;;;;;;0.60;0.60;;;;;;;1.31;77.65;96077.75;29373;268;63009;-57
2022/01/08 02:52:50;;;;;;;0.60;0.60;;;;;;;1.38;77.33;96084.75;29371;199;64004;-60
2022/01/08 02:53:22;;;;;;;0.60;0.60;;;;;;;1.40;76.85;96071.91;29373;198;63008;-57
2022/01/08 02:53:54;;;;;;;0.60;0.60;;;;;;;1.43;76.69;96072.22;29371;208;64004;-67
2022/01/08 02:54:26;;;;;;;0.60;0.60;;;;;;;1.41;77.11;96078.88;29373;216;63009;-57
2022/01/08 02:54:57;;;;;;;0.60;0.60;;;;;;;1.44;76.92;96073.81;29373;223;63005;-61
2022/01/08 02:55:29;;;;;;;0.60;0.60;;;;;;;1.42;76.77;96077.81;29373;331;63009;-60